AirNav   Phillips 66 Aviation Fuel
 
 434 users online  

2N7 Little Ferry Seaplane Base
Little Ferry, New Jersey, USA

GOING TO LITTLE FERRY?


FAA INFORMATION EFFECTIVE 29 MARCH 2018

Location

FAA Identifier: 2N7
Lat/Long: 40-51-00.3590N / 074-01-58.5040W
40-51.005983N / 074-01.975067W
40.8500997 / -74.0329178
(estimated)
Elevation: 0 ft. / 0 m (estimated)
Variation: 13W (1985)
From city: 1 mile E of LITTLE FERRY, NJ
Time zone: UTC -4 (UTC -5 during Standard Time)
Zip code: 07643

Seaplane Base Operations

Seaplane Base use: Open to the public
Activation date: 08/1947
Control tower: no
ARTCC: NEW YORK CENTER
FSS: MILLVILLE FLIGHT SERVICE STATION
NOTAMs facility: MIV (NOTAM-D service available)
Attendance: UNATNDD
Pattern altitude: 500 ft. MSL
Wind indicator: no
Segmented circle: no

Seaplane Base Communications

CTAF/UNICOM: 122.8
WX ASOS at TEB (1.3 nm W): PHONE 201-393-0855
WX ASOS at LGA (8 nm SE): PHONE 718-672-6317
WX AWOS-3PT at JRB (9 nm S): 128.175 (212-425-1534)
WX ASOS at EWR (11 nm SW): PHONE 973-621-2892
WX ASOS at CDW (11 nm W): PHONE 973-575-4417
WX AWOS-3 at LDJ (17 nm SW): 124.025 (908-862-7383)
WX ASOS at JFK (17 nm SE): PHONE 718-656-0956
WX AWOS-3 at MMU (18 nm W): PHONE 973-290-0135
WX ASOS at HPN (20 nm NE): PHONE 914-288-0216

Nearby radio navigation aids

VOR radial/distance  VOR name  Freq  Var
TEBr097/1.3TETERBORO VOR/DME108.4011W
LGAr310/8.5LA GUARDIA VOR/DME113.1012W
CRIr347/15.6CANARSIE VOR/DME112.3011W
JFKr330/17.6KENNEDY VOR/DME115.9012W
SAXr131/26.4SPARTA VORTAC115.7011W
COLr021/32.8COLTS NECK VOR/DME115.4011W
CMKr230/32.9CARMEL VOR/DME116.6012W
DPKr288/33.3DEER PARK VOR/DME117.7012W
BWZr096/36.0BROADWAY VOR/DME114.2011W
SBJr074/36.0SOLBERG VOR/DME112.9010W
STWr114/38.9STILLWATER VOR/DME109.6011W

 
NDB name  Hdg/Dist  Freq  Var  ID
TORBY071/5.321412WTE - .
BRIDGE350/18.241412WOGY --- --. -.--
CHATHAM083/19.225413WCAT -.-. .- -
BABYLON304/31.327514WBBN -... -... -.

Seaplane Base Services

Airframe service: NONE
Powerplant service: NONE
Bottled oxygen: NONE
Bulk oxygen: NONE

Runway Information

Runway 1/19

Dimensions: 5500 x 150 ft. / 1676 x 46 m
Surface: water, in good condition
RUNWAY 1  RUNWAY 19
Traffic pattern: leftright
Obstructions: 50 ft. tower, lighted, 1000 ft. from runway, 200 ft. left of centerline, 20:1 slope to clear85 ft. brdg, 1500 ft. from runway, 17:1 slope to clear

Seaplane Base Ownership and Management from official FAA records

Ownership: Privately-owned
Owner: ANASTASIOS G. GEORGAS
ONE HORIZON ROAD, UNIT #1424
FORT LEE, NJ 07824
Phone (201) 224-6179
Manager: ANASTASIOS G. GEORGAS
ONE HORIZON ROAD, UNIT #1424
FORT LEE, NJ 07824
Phone (201) 224-6179

Additional Remarks

DAYLIGHT USE ONLY.
LDG AREA USBL; HOWEVER FAC IS IN DISREPAIR AND UNUSBL.

Instrument Procedures

There are no published instrument procedures at 2N7.

Some nearby airports with instrument procedures:

KTEB - Teterboro Airport (1 nm W)
KJRA - West 30th St Heliport (6 nm S)
6N5 - East 34th Street Heliport (7 nm SE)
KLGA - LaGuardia Airport (8 nm SE)
KJRB - Downtown Manhattan/Wall Street Heliport (9 nm S)
KEWR - Newark Liberty International Airport (11 nm SW)
KCDW - Essex County Airport (11 nm W)
N07 - Lincoln Park Airport (14 nm NW)
KLDJ - Linden Airport (17 nm SW)
KJFK - John F Kennedy International Airport (17 nm SE)
 
Loc | Ops | Rwys | IFR | FBO | Links
Com | Nav | Svcs | Stats | Notes

AirNav Hotels Sweepstakes
 
Area around 2N7 (Little Ferry Seaplane Base)
 
Road maps at: MapQuest Bing Google
 
Aerial photo
WARNING: Photo may not be current or correct
Aerial photo of 2N7 (Little Ferry Seaplane Base)
Do you have a better or more recent aerial photo of Little Ferry Seaplane Base that you would like to share? If so, please send us your photo.

 
Sectional chart

 
Airport distance calculator
Flying to Little Ferry Seaplane Base? Find the distance to fly.

From to 2N7

Sunrise and sunset
Times for 24-Apr-2018
 Local
(UTC-4)
 Zulu
(UTC)
Morning civil twilight05:3609:36
Sunrise06:0510:05
Sunset19:4423:44
Evening civil twilight20:1300:13

Current date and time
Zulu (UTC)  24-Apr-2018 06:23:04
Local (UTC-4)  24-Apr-2018 02:23:04
 
METAR
KTEB 240551Z 00000KT 10SM CLR 08/04 A3041 RMK AO2 SLP296 T00830039 10150 20072 56009
KNYC 
5nm SE 
240551Z AUTO VRB03KT 10SM CLR 11/00 A3043 RMK AO2 SLP297 T01110000 10122 20100 57009
KLGA 
8nm SE 
240551Z 17004KT 10SM SCT250 10/06 A3041 RMK AO2 SLP298 T01000056 10122 20100 56008
KJRB 
9nm S 
240556Z AUTO 29003KT 10SM 10/04 RMK AO2 SLPNO T01000039 10111 20094 $
KCDW 
12nm W 
240553Z AUTO 00000KT 10SM CLR 06/03 A3041 RMK AO2 SLP304 T00610033 10122 20061 56008
KEWR 
12nm SW 
240551Z 00000KT 10SM SCT250 09/04 A3041 RMK AO2 SLP297 T00940039 10111 20089 58008
KLDJ 
17nm SW 
240555Z AUTO 00000KT 10SM CLR 08/04 A3042 RMK AO2 T00760043 10107 20074 401680051
KJFK 
18nm SE 
240551Z 00000KT 9SM SCT250 07/06 A3043 RMK AO2 SLP304 T00670061 10089 20061 56009
KMMU 
18nm W 
240555Z AUTO 00000KT 10SM CLR 04/03 A3041 RMK AO2
KHPN 
20nm NE 
240556Z 00000KT 10SM CLR 06/03 A3040 RMK AO2 SLP295 T00560033 10100 20050 58010 $
TAF
KTEB 240520Z 2406/2512 00000KT P6SM SCT250 FM241600 12006KT P6SM BKN250 FM241800 15009KT P6SM BKN250 FM242300 12008KT P6SM OVC035 FM250000 12007KT 3SM RA OVC015 FM250300 10008KT 3SM RA OVC006 FM251000 11012KT 2SM RA BR OVC006
KLGA 
8nm SE 
240520Z 2406/2512 VRB01KT P6SM SCT250 FM241600 11006KT P6SM BKN250 FM241800 14008KT P6SM BKN250 FM250000 11008KT 3SM RA OVC015 FM250300 10009KT 3SM RA OVC006 FM251000 11013G19KT 2SM RA BR OVC006
KEWR 
12nm SW 
240520Z 2406/2512 VRB01KT P6SM SCT250 FM241600 12006KT P6SM BKN250 FM250000 11008KT 3SM RA OVC015 FM250300 10008KT 3SM RA OVC006 FM250800 11012KT 3SM RA OVC006
KJFK 
18nm SE 
240520Z 2406/2512 VRB02KT P6SM SCT250 FM241500 10006KT P6SM BKN250 FM241700 13008KT P6SM BKN250 FM250000 11010KT 3SM RA OVC015 FM250300 10010G16KT 3SM RA OVC006 FM251000 11017KT 2SM RA BR OVC006
KHPN 
20nm NE 
240520Z 2406/2506 00000KT P6SM FEW250 FM241600 14006KT P6SM BKN250 FM242300 11007KT P6SM OVC035 FM250300 10008KT 3SM RA OVC010 AMD NOT SKED
NOTAMs
Click for the latest NOTAMs
NOTAMs are issued by the DoD/FAA and will open in a separate window not controlled by AirNav.

 

 
 

Would you like to see your business listed on this page?

 If your business provides an interesting product or service to pilots, flight crews, aircraft, or users of the Little Ferry Seaplane Base, you should consider listing it here.  To start the listing process, click on the button below
 
Add a business
 

Other Pages about Little Ferry Seaplane Base

Update a link
 
Copyright © AirNav, LLC. All rights reserved. Privacy Policy  Contact